Time;durP1;ratioP1;P1;durP2;ratioP2;P2;SDS_P1;SDS_P2;PMS_P1;PMS_P2;Temp;Humidity;BMP_temperature;BMP_pressure;BME280_temperature;BME280_humidity;BME280_pressure;Samples;Min_cycle;Max_cycle;Signal;HPM_P1;HPM_P2
2024/02/02 00:02:14;;;;;;;46.47;5.93;;;;;;;4.36;100.00;101447.81;5058994;28;20494;-70
2024/02/02 00:04:39;;;;;;;35.40;4.40;;;;;;;4.41;100.00;101442.06;5080031;28;20028;-71
2024/02/02 00:07:05;;;;;;;42.92;5.32;;;;;;;4.39;100.00;101449.34;5060085;28;20054;-72
2024/02/02 00:09:30;;;;;;;38.50;5.28;;;;;;;4.33;100.00;101441.94;5078610;28;20031;-71
2024/02/02 00:11:55;;;;;;;36.40;4.97;;;;;;;4.34;100.00;101440.94;5077410;28;20047;-70
2024/02/02 00:14:21;;;;;;;37.13;5.13;;;;;;;4.34;100.00;101441.81;5079168;28;20461;-71
2024/02/02 00:16:46;;;;;;;44.08;5.65;;;;;;;4.37;100.00;101444.19;5078513;28;20107;-73
2024/02/02 00:19:11;;;;;;;34.00;4.93;;;;;;;3.84;100.00;101353.25;5077663;28;20515;-71
2024/02/02 00:21:37;;;;;;;38.60;4.70;;;;;;;4.38;100.00;101432.53;5077782;28;20033;-71
2024/02/02 00:24:02;;;;;;;44.45;5.72;;;;;;;4.44;100.00;101447.13;5077977;28;20017;-70
2024/02/02 00:26:28;;;;;;;33.83;5.10;;;;;;;4.39;100.00;101441.34;5078850;28;20032;-71
2024/02/02 00:28:53;;;;;;;38.58;5.45;;;;;;;4.40;100.00;101440.38;5077882;28;20021;-71
2024/02/02 00:31:21;;;;;;;32.85;5.45;;;;;;;4.23;100.00;101423.28;5078078;28;20116;-69
2024/02/02 00:33:48;;;;;;;41.55;6.20;;;;;;;4.34;100.00;101457.78;5078392;28;20379;-69
2024/02/02 00:36:13;;;;;;;38.92;4.40;;;;;;;4.33;100.00;101460.56;5078093;28;20029;-71
2024/02/02 00:38:40;;;;;;;37.38;5.03;;;;;;;4.34;100.00;101464.91;5078982;28;20028;-69
2024/02/02 00:41:05;;;;;;;36.53;4.55;;;;;;;4.37;100.00;101468.16;5079207;28;20395;-73
2024/02/02 00:43:30;;;;;;;32.88;4.20;;;;;;;4.31;100.00;101466.06;5078978;28;20025;-69
2024/02/02 00:45:56;;;;;;;37.08;3.70;;;;;;;4.35;100.00;101469.28;5078179;28;20060;-70
2024/02/02 00:48:21;;;;;;;19.67;3.15;;;;;;;4.33;100.00;101466.75;5080405;28;20029;-70
2024/02/02 00:50:46;;;;;;;25.67;3.67;;;;;;;4.34;100.00;101462.25;5082728;28;20212;-71
2024/02/02 00:53:12;;;;;;;22.30;3.15;;;;;;;4.36;100.00;101466.47;5064694;28;20036;-72
2024/02/02 00:55:37;;;;;;;26.08;3.08;;;;;;;4.36;100.00;101455.81;5082424;28;20036;-71
2024/02/02 00:58:03;;;;;;;33.15;3.72;;;;;;;4.37;100.00;101456.63;5063512;28;20438;-70
2024/02/02 01:00:28;;;;;;;26.17;4.07;;;;;;;4.38;100.00;101463.66;5065058;28;20047;-71
2024/02/02 01:02:53;;;;;;;24.17;3.25;;;;;;;4.46;100.00;101458.44;5085139;28;20479;-70
2024/02/02 01:05:20;;;;;;;27.38;3.17;;;;;;;4.53;100.00;101456.88;5084944;28;20876;-70
2024/02/02 01:07:47;;;;;;;24.63;2.47;;;;;;;4.55;100.00;101444.28;5083730;28;20050;-70
2024/02/02 01:10:16;;;;;;;29.88;3.35;;;;;;;4.54;100.00;101439.94;5083906;28;20028;-69
2024/02/02 01:12:43;;;;;;;30.88;4.15;;;;;;;4.70;100.00;101465.97;5069288;28;20058;-73
2024/02/02 01:15:08;;;;;;;28.98;3.65;;;;;;;4.77;100.00;101453.75;5070068;28;20036;-72
2024/02/02 01:17:34;;;;;;;24.92;3.10;;;;;;;4.76;100.00;101451.22;5083661;28;20036;-70
2024/02/02 01:20:03;;;;;;;28.58;4.53;;;;;;;4.68;100.00;101438.63;5082687;28;20043;-70
2024/02/02 01:22:28;;;;;;;23.60;3.03;;;;;;;4.84;100.00;101459.34;5067299;28;20032;-69
2024/02/02 01:24:57;;;;;;;28.95;3.35;;;;;;;4.85;100.00;101466.34;5083501;28;20028;-69
2024/02/02 01:27:22;;;;;;;29.92;3.65;;;;;;;4.85;100.00;101466.34;5065372;28;20035;-70
2024/02/02 01:29:47;;;;;;;27.95;3.75;;;;;;;4.84;100.00;101467.34;5065952;28;20044;-69
2024/02/02 01:32:13;;;;;;;36.45;4.32;;;;;;;4.84;100.00;101467.34;5066563;28;20035;-70
2024/02/02 01:34:38;;;;;;;33.85;4.18;;;;;;;4.83;100.00;101470.97;5083795;28;20032;-70
2024/02/02 01:37:04;;;;;;;33.50;3.97;;;;;;;4.83;100.00;101474.47;5083800;28;20543;-70
2024/02/02 01:39:30;;;;;;;26.20;3.30;;;;;;;4.83;100.00;101474.47;5065892;28;20040;-69
2024/02/02 01:41:56;;;;;;;32.53;4.10;;;;;;;4.77;100.00;101463.56;5065173;28;20027;-69
2024/02/02 01:44:21;;;;;;;25.27;3.80;;;;;;;4.84;100.00;101467.34;5082378;28;20032;-71
2024/02/02 01:46:47;;;;;;;41.63;4.90;;;;;;;4.87;100.00;101467.06;5083553;28;20104;-70
2024/02/02 01:49:13;;;;;;;37.28;4.60;;;;;;;4.82;100.00;101464.81;5048615;28;20543;-70
2024/02/02 01:51:39;;;;;;;35.30;4.32;;;;;;;4.90;100.00;101459.59;5081830;28;20028;-71
2024/02/02 01:54:05;;;;;;;44.42;5.60;;;;;;;4.84;100.00;101457.53;5082169;28;20111;-69
2024/02/02 01:56:30;;;;;;;32.33;4.25;;;;;;;4.86;100.00;101463.53;5082873;28;20114;-71
2024/02/02 01:58:56;;;;;;;29.45;3.33;;;;;;;4.90;100.00;101459.59;5046414;28;20368;-71
2024/02/02 02:01:22;;;;;;;33.22;4.40;;;;;;;4.91;100.00;101463.13;5082239;28;20035;-71
2024/02/02 02:03:47;;;;;;;38.58;5.45;;;;;;;4.89;100.00;101462.41;5082345;28;20025;-70
2024/02/02 02:06:14;;;;;;;40.45;4.93;;;;;;;4.77;100.00;101444.91;5083636;28;20088;-70
2024/02/02 02:08:39;;;;;;;39.53;5.28;;;;;;;4.92;100.00;101468.28;5084225;28;20021;-70
2024/02/02 02:11:06;;;;;;;44.10;5.13;;;;;;;4.87;100.00;101467.91;5086381;28;20025;-71
2024/02/02 02:13:32;;;;;;;37.22;4.80;;;;;;;4.93;100.00;101463.78;5067432;28;20115;-70
2024/02/02 02:15:58;;;;;;;28.08;4.22;;;;;;;4.90;100.00;101459.59;5082597;28;20399;-69
2024/02/02 02:18:23;;;;;;;31.70;4.47;;;;;;;4.97;100.00;101448.34;5080881;28;20100;-69
2024/02/02 02:20:52;;;;;;;30.52;4.30;;;;;;;4.98;100.00;101453.53;5080654;28;20028;-69
2024/02/02 02:23:17;;;;;;;33.97;4.78;;;;;;;4.84;100.00;101422.03;5081077;28;20032;-70
2024/02/02 02:25:43;;;;;;;41.05;4.88;;;;;;;5.00;100.00;101443.56;5081354;28;20025;-70
2024/02/02 02:28:09;;;;;;;42.28;4.93;;;;;;;4.83;100.00;101415.00;5080920;28;20059;-71
2024/02/02 02:30:34;;;;;;;38.88;4.78;;;;;;;4.99;100.00;101428.53;5082570;28;20024;-70
2024/02/02 02:32:59;;;;;;;38.85;5.70;;;;;;;5.00;100.00;101429.38;5082743;28;20036;-70
2024/02/02 02:35:25;;;;;;;36.65;4.30;;;;;;;4.94;100.00;101412.16;5081483;28;20150;-73
2024/02/02 02:37:50;;;;;;;31.23;4.18;;;;;;;5.00;100.00;101424.03;5082221;28;20082;-71
2024/02/02 02:40:16;;;;;;;33.08;3.55;;;;;;;4.98;100.00;101418.03;5081307;28;20024;-70
2024/02/02 02:42:41;;;;;;;36.72;4.30;;;;;;;4.98;100.00;101418.88;5081197;28;20028;-71
2024/02/02 02:45:07;;;;;;;25.38;3.85;;;;;;;5.03;100.00;101416.56;5082760;28;20477;-71
2024/02/02 02:47:32;;;;;;;24.95;3.50;;;;;;;5.03;100.00;101408.56;5064035;28;20031;-73
2024/02/02 02:49:57;;;;;;;37.60;4.57;;;;;;;5.01;100.00;101410.56;5081750;28;20420;-72
2024/02/02 02:52:23;;;;;;;22.08;3.00;;;;;;;5.00;100.00;101405.38;5080565;28;20036;-71
2024/02/02 02:54:48;;;;;;;26.15;3.50;;;;;;;4.86;100.00;101366.69;5064090;28;20384;-70
2024/02/02 02:57:13;;;;;;;20.60;2.85;;;;;;;5.02;100.00;101395.41;5081557;28;20036;-70
2024/02/02 02:59:39;;;;;;;31.63;4.60;;;;;;;4.97;100.00;101387.00;5079504;28;20170;-71
2024/02/02 03:02:04;;;;;;;22.83;3.03;;;;;;;4.95;100.00;101382.66;5062284;28;20040;-70
2024/02/02 03:04:31;;;;;;;30.95;3.67;;;;;;;4.99;100.00;101379.69;5062635;28;20041;-70
2024/02/02 03:06:56;;;;;;;26.17;3.85;;;;;;;4.97;100.00;101376.31;5078673;28;20028;-71
2024/02/02 03:09:21;;;;;;;24.02;2.50;;;;;;;4.92;100.00;101377.63;5079896;28;20397;-70
2024/02/02 03:11:47;;;;;;;22.33;3.42;;;;;;;4.99;100.00;101377.03;5080405;28;20036;-70
2024/02/02 03:14:13;;;;;;;26.00;3.00;;;;;;;4.99;100.00;101371.69;5079193;28;20082;-70
2024/02/02 03:16:40;;;;;;;22.52;3.50;;;;;;;4.92;100.00;101363.44;5080128;28;20064;-71
2024/02/02 03:19:05;;;;;;;24.05;3.20;;;;;;;4.98;100.00;101376.19;5078930;28;20040;-70
2024/02/02 03:21:31;;;;;;;29.33;3.50;;;;;;;4.99;100.00;101369.84;5059850;28;20036;-69
2024/02/02 03:23:56;;;;;;;34.78;4.30;;;;;;;5.01;100.00;101372.41;5074711;28;20051;-70
2024/02/02 03:26:21;;;;;;;25.67;4.05;;;;;;;4.98;100.00;101370.84;5075081;28;20028;-69
2024/02/02 03:28:47;;;;;;;36.65;3.70;;;;;;;4.98;100.00;101364.69;5075996;28;20435;-71
2024/02/02 03:31:12;;;;;;;33.13;4.03;;;;;;;4.96;100.00;101364.81;5078397;28;20033;-70
2024/02/02 03:33:38;;;;;;;27.77;3.90;;;;;;;4.97;100.00;101349.66;5078189;28;20024;-71
2024/02/02 03:36:03;;;;;;;24.42;3.28;;;;;;;4.97;100.00;101358.53;5082426;28;20399;-74
2024/02/02 03:38:28;;;;;;;30.15;4.13;;;;;;;5.02;100.00;101364.22;5081507;28;20035;-70
2024/02/02 03:40:54;;;;;;;31.77;4.30;;;;;;;4.99;100.00;101361.84;5081028;28;20483;-70
2024/02/02 03:43:19;;;;;;;40.45;4.88;;;;;;;5.00;100.00;101374.22;5045604;28;20564;-70
2024/02/02 03:45:45;;;;;;;44.75;4.75;;;;;;;5.01;100.00;101375.06;5080689;28;20060;-71
2024/02/02 03:48:10;;;;;;;38.78;4.60;;;;;;;4.98;100.00;101365.53;5081937;28;20088;-71
2024/02/02 03:50:36;;;;;;;40.78;4.88;;;;;;;4.97;100.00;101352.31;5063602;28;20032;-73
2024/02/02 03:53:01;;;;;;;39.28;4.53;;;;;;;4.92;100.00;101336.78;5081228;28;20032;-71
2024/02/02 03:55:27;;;;;;;34.65;3.80;;;;;;;4.99;100.00;101345.84;5063868;28;20024;-71
2024/02/02 03:57:52;;;;;;;38.08;5.07;;;;;;;4.97;100.00;101347.00;5062418;28;20031;-70
2024/02/02 04:00:18;;;;;;;29.00;4.45;;;;;;;4.95;100.00;101347.16;5061846;28;20028;-70
2024/02/02 04:02:47;;;;;;;34.22;4.45;;;;;;;4.98;100.00;101354.03;5080122;28;20328;-72
2024/02/02 04:05:12;;;;;;;36.45;4.40;;;;;;;4.95;100.00;101348.00;5080276;28;20047;-71
2024/02/02 04:07:38;;;;;;;36.80;4.40;;;;;;;4.97;100.00;101345.19;5080405;28;20025;-71
2024/02/02 04:10:05;;;;;;;39.42;6.03;;;;;;;4.89;100.00;101334.41;5061979;28;20040;-71
2024/02/02 04:12:30;;;;;;;49.70;5.70;;;;;;;4.87;100.00;101331.91;5078545;28;20033;-70
2024/02/02 04:14:56;;;;;;;42.17;5.25;;;;;;;4.88;100.00;101336.25;5071441;28;20032;-69
2024/02/02 04:17:21;;;;;;;35.63;4.82;;;;;;;4.83;100.00;101335.00;5058825;28;20395;-70
2024/02/02 04:19:47;;;;;;;46.83;4.93;;;;;;;4.79;100.00;101345.13;5076196;28;20060;-70
2024/02/02 04:22:16;;;;;;;40.22;5.00;;;;;;;4.77;100.00;101346.25;5061385;28;20590;-71
2024/02/02 04:24:42;;;;;;;41.35;5.50;;;;;;;4.75;100.00;101348.25;5065454;28;20085;-70
2024/02/02 04:27:08;;;;;;;43.65;5.80;;;;;;;4.71;100.00;101343.22;5082941;28;20040;-70
2024/02/02 04:29:33;;;;;;;40.70;4.70;;;;;;;4.71;100.00;101334.38;5085757;28;20033;-72
2024/02/02 04:31:58;;;;;;;47.13;5.57;;;;;;;4.67;100.00;101333.84;5085255;28;20056;-70
2024/02/02 04:34:24;;;;;;;46.97;5.28;;;;;;;4.62;100.00;101330.75;5070780;28;20498;-71
2024/02/02 04:36:49;;;;;;;39.70;5.38;;;;;;;4.55;100.00;101321.69;5062919;28;20025;-69
2024/02/02 04:39:14;;;;;;;42.55;5.72;;;;;;;4.58;100.00;101328.53;5063333;28;20025;-70
2024/02/02 04:41:40;;;;;;;46.08;5.18;;;;;;;4.57;100.00;101318.84;5062850;28;20517;-69
2024/02/02 04:44:05;;;;;;;44.90;5.53;;;;;;;4.44;100.00;101290.72;5061938;28;20032;-70
2024/02/02 04:46:31;;;;;;;51.78;5.78;;;;;;;4.57;100.00;101325.03;5061964;28;20025;-70
2024/02/02 04:48:58;;;;;;;42.95;5.13;;;;;;;4.52;100.00;101313.13;5062127;28;20091;-70
2024/02/02 04:51:23;;;;;;;59.97;6.53;;;;;;;4.44;100.00;101295.22;5044810;28;20025;-69
2024/02/02 04:53:49;;;;;;;41.58;5.30;;;;;;;4.46;100.00;101299.41;5061801;28;20077;-69
2024/02/02 04:56:15;;;;;;;39.10;5.25;;;;;;;4.50;100.00;101294.63;5028033;28;20033;-69
2024/02/02 04:58:40;;;;;;;50.10;6.88;;;;;;;4.40;100.00;101272.50;5044247;28;20029;-69
2024/02/02 05:01:05;;;;;;;54.47;6.40;;;;;;;4.53;100.00;101291.66;5044428;28;20051;-71
2024/02/02 05:03:31;;;;;;;48.15;5.50;;;;;;;4.53;100.00;101296.16;5060821;28;20033;-70
2024/02/02 05:05:57;;;;;;;49.95;6.20;;;;;;;4.48;100.00;101270.78;5061878;28;20079;-71
2024/02/02 05:08:22;;;;;;;40.40;5.22;;;;;;;4.47;100.00;101263.78;5062920;28;20032;-70
2024/02/02 05:10:48;;;;;;;45.40;5.47;;;;;;;4.47;100.00;101261.13;5066095;28;20025;-69
2024/02/02 05:13:13;;;;;;;51.28;5.80;;;;;;;4.49;100.00;101260.97;5062825;28;20036;-71
2024/02/02 05:15:40;;;;;;;45.83;5.78;;;;;;;4.50;100.00;101259.97;5064214;28;20040;-71
2024/02/02 05:18:07;;;;;;;49.58;5.88;;;;;;;4.43;100.00;101237.56;5045949;28;20045;-71
2024/02/02 05:20:33;;;;;;;46.08;5.68;;;;;;;4.46;100.00;101248.78;5062514;28;20036;-70
2024/02/02 05:22:58;;;;;;;44.22;5.03;;;;;;;4.49;100.00;101250.31;5063883;28;20025;-71
2024/02/02 05:25:24;;;;;;;41.95;5.28;;;;;;;4.49;100.00;101252.97;5045213;28;20029;-70
2024/02/02 05:27:49;;;;;;;48.15;5.18;;;;;;;4.43;100.00;101232.25;5064589;28;20472;-71
2024/02/02 05:30:14;;;;;;;48.85;5.82;;;;;;;4.51;100.00;101250.19;5031306;28;20510;-72
2024/02/02 05:32:40;;;;;;;48.17;5.45;;;;;;;4.35;100.00;101221.50;5062293;28;20083;-73
2024/02/02 05:35:06;;;;;;;39.63;5.00;;;;;;;4.51;100.00;101250.19;5061662;28;20033;-71
2024/02/02 05:37:33;;;;;;;45.75;5.28;;;;;;;4.23;100.00;101216.34;5062804;28;20033;-73
2024/02/02 05:39:59;;;;;;;37.63;5.32;;;;;;;4.48;100.00;101241.47;5062528;28;20021;-72
2024/02/02 05:42:24;;;;;;;55.65;6.20;;;;;;;4.48;100.00;101230.00;5062760;28;20032;-72
2024/02/02 05:44:49;;;;;;;53.65;5.30;;;;;;;4.31;100.00;101202.31;5044071;28;20021;-71
2024/02/02 05:47:15;;;;;;;39.80;5.05;;;;;;;4.52;100.00;101234.03;5028503;28;20119;-73
2024/02/02 05:49:40;;;;;;;46.35;5.32;;;;;;;4.50;100.00;101217.34;5061392;28;20029;-71
2024/02/02 05:52:09;;;;;;;40.03;4.50;;;;;;;4.50;100.00;101225.31;5061217;28;20032;-72
2024/02/02 05:54:35;;;;;;;39.58;4.88;;;;;;;4.41;100.00;101204.94;5043435;28;20466;-72
2024/02/02 05:57:01;;;;;;;47.85;5.78;;;;;;;4.50;100.00;101219.16;5059690;28;20029;-73
2024/02/02 05:59:26;;;;;;;53.22;5.07;;;;;;;4.49;100.00;101213.00;5059843;28;20029;-72
2024/02/02 06:01:51;;;;;;;43.67;4.88;;;;;;;4.50;100.00;101204.00;5060272;28;20408;-72
2024/02/02 06:04:17;;;;;;;42.53;4.68;;;;;;;4.51;100.00;101213.69;5059337;28;20044;-72
2024/02/02 06:06:42;;;;;;;40.45;4.88;;;;;;;4.48;100.00;101208.66;5057526;28;20032;-72
2024/02/02 06:09:11;;;;;;;38.53;4.68;;;;;;;4.44;100.00;101207.28;5057670;28;20021;-72
2024/02/02 06:11:36;;;;;;;47.88;4.63;;;;;;;4.52;100.00;101219.88;5025063;28;20032;-71
2024/02/02 06:14:01;;;;;;;42.35;4.97;;;;;;;4.52;100.00;101215.38;5059674;28;20025;-71
2024/02/02 06:16:27;;;;;;;47.65;4.60;;;;;;;4.42;100.00;101204.75;5058478;28;20033;-72
2024/02/02 06:18:54;;;;;;;38.17;5.20;;;;;;;4.48;100.00;101201.50;5059168;28;20060;-70
2024/02/02 06:21:19;;;;;;;40.80;5.07;;;;;;;4.34;100.00;101179.84;5062388;28;20052;-72
2024/02/02 06:23:45;;;;;;;41.47;5.35;;;;;;;4.34;100.00;101162.06;5061327;28;20081;-73
2024/02/02 06:26:10;;;;;;;42.38;4.95;;;;;;;4.52;100.00;101186.06;5061488;28;20024;-72
2024/02/02 06:28:35;;;;;;;42.88;5.15;;;;;;;4.37;100.00;101155.56;5060332;28;20109;-71
2024/02/02 06:31:01;;;;;;;49.55;5.40;;;;;;;4.51;100.00;101179.06;5061463;28;20395;-72
2024/02/02 06:33:26;;;;;;;35.45;4.65;;;;;;;4.39;100.00;101150.94;5061890;28;20396;-71
2024/02/02 06:35:51;;;;;;;33.88;4.75;;;;;;;4.18;100.00;101116.59;5060009;28;20029;-72
2024/02/02 06:38:17;;;;;;;35.92;4.78;;;;;;;4.40;100.00;101144.63;5061470;28;20033;-72
2024/02/02 06:40:42;;;;;;;41.55;4.68;;;;;;;4.52;100.00;101170.06;5063733;28;20032;-70
2024/02/02 06:43:08;;;;;;;38.80;4.97;;;;;;;4.40;100.00;101147.28;5063871;28;20029;-72
2024/02/02 06:45:35;;;;;;;41.85;5.47;;;;;;;4.48;100.00;101160.69;5063056;28;20048;-71
2024/02/02 06:48:01;;;;;;;37.20;5.38;;;;;;;4.48;100.00;101158.88;5062319;28;20032;-71
2024/02/02 06:50:28;;;;;;;34.30;4.95;;;;;;;4.50;100.00;101165.88;5061249;28;20033;-71
2024/02/02 06:52:54;;;;;;;36.58;4.25;;;;;;;4.45;100.00;101150.34;5075506;28;20047;-72
2024/02/02 06:55:19;;;;;;;36.00;4.32;;;;;;;4.41;100.00;101138.31;5074944;28;20113;-71
2024/02/02 06:57:45;;;;;;;34.22;3.83;;;;;;;4.47;100.00;101157.22;5047784;28;20040;-71
2024/02/02 07:00:13;;;;;;;23.67;3.42;;;;;;;4.45;100.00;101145.84;5082795;28;20085;-70
2024/02/02 07:02:39;;;;;;;30.45;4.25;;;;;;;4.50;100.00;101148.03;5084138;28;20028;-70
2024/02/02 07:05:04;;;;;;;36.58;4.75;;;;;;;4.46;100.00;101134.19;5084645;28;20110;-72
2024/02/02 07:07:31;;;;;;;36.70;4.20;;;;;;;4.46;100.00;101120.88;5082198;28;20474;-71
2024/02/02 07:09:56;;;;;;;32.72;4.13;;;;;;;4.36;100.00;101103.28;5066143;28;20040;-70
2024/02/02 07:12:34;;;;;;;29.17;4.38;;;;;;;4.41;100.00;101109.84;5045791;28;20033;-72
2024/02/02 07:15:03;;;;;;;37.47;4.47;;;;;;;4.33;100.00;101084.94;5065687;28;20494;-70
2024/02/02 07:17:36;;;;;;;28.60;3.80;;;;;;;4.39;100.00;101089.66;5063179;28;20029;-71
2024/02/02 07:20:08;;;;;;;21.70;3.35;;;;;;;4.35;100.00;101090.97;5060841;28;20102;-72
2024/02/02 07:22:38;;;;;;;28.65;3.03;;;;;;;4.32;100.00;101070.78;5059682;28;20028;-71
2024/02/02 07:25:18;;;;;;;25.58;3.25;;;;;;;4.31;100.00;101066.44;5042982;28;20028;-71
2024/02/02 07:27:56;;;;;;;28.58;3.22;;;;;;;4.30;100.00;101055.94;5059040;28;20511;-71
2024/02/02 07:30:55;;;;;;;23.05;3.22;;;;;;;4.31;100.00;101058.47;5062240;28;20066;-71
2024/02/02 07:33:26;;;;;;;25.65;3.03;;;;;;;4.29;100.00;101054.28;5061556;28;20024;-71
2024/02/02 07:35:53;;;;;;;19.60;2.65;;;;;;;4.31;100.00;101044.31;5060742;28;20078;-72
2024/02/02 07:38:46;;;;;;;20.73;2.90;;;;;;;4.29;100.00;101036.47;5058324;28;20115;-71
2024/02/02 07:41:17;;;;;;;17.92;2.38;;;;;;;4.24;100.00;101030.75;5053169;28;20036;-71
2024/02/02 07:43:44;;;;;;;17.88;2.60;;;;;;;4.17;100.00;101021.69;5058892;28;20027;-71
2024/02/02 07:46:10;;;;;;;16.27;2.30;;;;;;;4.14;100.00;101025.50;5066745;28;20008;-71
2024/02/02 07:48:37;;;;;;;12.10;1.63;;;;;;;4.17;100.00;101019.88;5078987;28;20071;-72
2024/02/02 07:51:04;;;;;;;12.45;1.58;;;;;;;4.15;100.00;101023.69;5081253;28;20343;-71
2024/02/02 07:53:29;;;;;;;20.48;2.15;;;;;;;4.10;100.00;101020.63;5081907;28;20058;-71
2024/02/02 07:55:55;;;;;;;13.52;1.92;;;;;;;4.07;100.00;101029.75;5055042;28;20120;-71
2024/02/02 07:58:23;;;;;;;17.17;1.55;;;;;;;4.03;100.00;101025.72;5079746;28;20024;-72
2024/02/02 08:00:51;;;;;;;13.55;1.90;;;;;;;3.94;100.00;101019.50;5079084;28;20005;-73
2024/02/02 08:03:17;;;;;;;12.13;1.80;;;;;;;3.92;100.00;101032.09;5078344;28;20722;-71
2024/02/02 08:05:44;;;;;;;10.50;1.10;;;;;;;3.82;100.00;101017.19;5080907;28;20039;-71
2024/02/02 08:08:09;;;;;;;11.25;0.93;;;;;;;3.74;100.00;101016.13;5080230;28;20021;-71
2024/02/02 08:10:35;;;;;;;11.55;1.10;;;;;;;3.62;100.00;101001.34;5081653;28;20045;-70
2024/02/02 08:13:00;;;;;;;7.90;0.90;;;;;;;3.55;100.00;100988.78;5062277;28;20017;-73
2024/02/02 08:15:26;;;;;;;14.60;1.27;;;;;;;3.68;100.00;101014.03;5080015;28;20072;-71
2024/02/02 08:17:53;;;;;;;12.10;1.20;;;;;;;3.59;100.00;101014.09;5076056;28;20048;-72
2024/02/02 08:20:18;;;;;;;7.10;1.02;;;;;;;3.60;100.00;101000.63;5064494;28;20055;-71
2024/02/02 08:22:46;;;;;;;8.80;1.40;;;;;;;3.55;100.00;100996.75;5080982;28;20020;-71
2024/02/02 08:25:11;;;;;;;12.70;1.17;;;;;;;3.49;100.00;100999.03;5080211;28;20032;-71
2024/02/02 08:27:37;;;;;;;9.10;1.13;;;;;;;3.41;100.00;100995.41;5080093;28;20081;-70
2024/02/02 08:30:05;;;;;;;8.40;1.30;;;;;;;3.39;100.00;100997.41;5080609;28;20028;-71
2024/02/02 08:32:30;;;;;;;9.02;1.10;;;;;;;3.41;100.00;100995.41;5081019;28;20032;-71
2024/02/02 08:34:56;;;;;;;7.85;1.10;;;;;;;3.43;100.00;100998.78;5059456;28;20009;-74
2024/02/02 08:37:21;;;;;;;11.77;1.33;;;;;;;3.44;100.00;100989.78;5077378;28;20182;-72
2024/02/02 08:39:47;;;;;;;17.50;1.88;;;;;;;3.48;100.00;100986.72;5080826;28;20013;-72
2024/02/02 08:42:22;;;;;;;17.90;2.38;;;;;;;3.46;100.00;100983.34;5076018;28;20123;-71
2024/02/02 08:44:51;;;;;;;13.70;1.65;;;;;;;3.48;100.00;100965.44;5077913;28;20509;-71
2024/02/02 08:47:18;;;;;;;23.67;1.80;;;;;;;3.47;100.00;100954.91;5069204;28;20033;-72
2024/02/02 08:49:59;;;;;;;18.40;1.73;;;;;;;3.48;100.00;100936.16;5075796;28;20024;-71
2024/02/02 08:52:34;;;;;;;15.52;2.05;;;;;;;3.51;100.00;100927.06;5060452;28;20350;-71
2024/02/02 08:55:03;;;;;;;17.55;2.30;;;;;;;3.50;100.00;100914.72;5063870;28;20398;-71
2024/02/02 08:58:23;;;;;;;15.30;1.80;;;;;;;3.57;100.00;100920.28;5049809;28;20220;-71
2024/02/02 09:00:50;;;;;;;21.88;2.38;;;;;;;3.56;100.00;100914.13;5066795;28;20028;-73
2024/02/02 09:03:16;;;;;;;16.80;1.58;;;;;;;3.58;100.00;100903.34;5067118;28;20040;-71
2024/02/02 09:05:50;;;;;;;18.23;1.92;;;;;;;3.45;100.00;100864.63;5066702;28;20020;-72
2024/02/02 09:08:27;;;;;;;24.05;2.35;;;;;;;3.63;100.00;100879.75;5074413;28;20093;-71
2024/02/02 09:10:58;;;;;;;17.70;1.73;;;;;;;3.66;100.00;100866.16;5071229;28;20059;-72
2024/02/02 09:13:25;;;;;;;14.93;1.75;;;;;;;3.65;100.00;100865.31;5066349;28;20093;-71
2024/02/02 09:15:53;;;;;;;21.27;2.88;;;;;;;3.68;100.00;100851.72;5071022;28;20043;-70
2024/02/02 09:18:34;;;;;;;14.75;2.70;;;;;;;3.50;100.00;100809.13;5070856;28;20060;-70
2024/02/02 09:21:01;;;;;;;15.98;1.63;;;;;;;3.75;100.00;100826.16;5069143;28;20348;-71
2024/02/02 09:23:30;;;;;;;20.10;1.98;;;;;;;3.79;100.00;100821.34;5071354;28;20020;-73
2024/02/02 09:25:55;;;;;;;19.40;2.17;;;;;;;3.81;100.00;100816.72;5068876;28;20029;-72
2024/02/02 09:28:32;;;;;;;15.55;1.75;;;;;;;3.83;100.00;100803.25;5052055;28;20028;-72
2024/02/02 09:30:59;;;;;;;11.60;1.60;;;;;;;3.86;100.00;100809.09;5072667;28;20028;-71
2024/02/02 09:33:31;;;;;;;10.90;1.42;;;;;;;3.90;100.00;100798.97;5071292;28;20027;-72
2024/02/02 09:35:58;;;;;;;17.38;2.08;;;;;;;3.90;100.00;100793.66;5066891;28;20071;-72
2024/02/02 09:38:25;;;;;;;14.82;2.25;;;;;;;3.93;100.00;100782.69;5071529;28;20433;-70
2024/02/02 09:41:13;;;;;;;14.55;2.10;;;;;;;3.97;100.00;100784.91;5069357;28;20059;-71
2024/02/02 09:43:59;;;;;;;13.38;1.60;;;;;;;4.01;100.00;100774.78;5069303;28;20242;-72
2024/02/02 09:46:50;;;;;;;12.02;1.80;;;;;;;4.03;100.00;100770.09;5073592;28;20016;-72
2024/02/02 09:49:39;;;;;;;20.05;2.13;;;;;;;4.04;100.00;100763.81;5062947;28;20024;-70
2024/02/02 09:52:18;;;;;;;8.68;1.40;;;;;;;4.06;100.00;100751.16;5064838;28;20396;-70
2024/02/02 09:55:16;;;;;;;12.02;1.88;;;;;;;4.11;100.00;100748.03;5066989;28;20032;-72
2024/02/02 09:57:51;;;;;;;16.20;2.20;;;;;;;4.13;100.00;100738.88;5058536;28;20078;-71
2024/02/02 10:00:24;;;;;;;;;;;;;;;4.12;100.00;100729.22;5089637;28;20029;-70
2024/02/02 10:03:04;;;;;;;19.23;2.10;;;;;;;4.15;100.00;100718.25;5069288;28;19908;-71
2024/02/02 10:05:48;;;;;;;16.67;2.35;;;;;;;4.15;100.00;100718.25;5061772;28;20127;-70
2024/02/02 10:08:22;;;;;;;18.53;2.57;;;;;;;4.18;100.00;100707.28;5064182;28;20029;-70
2024/02/02 10:10:57;;;;;;;18.77;2.42;;;;;;;4.21;100.00;100704.31;5067627;28;20039;-71
2024/02/02 10:13:32;;;;;;;16.88;2.28;;;;;;;4.22;100.00;100695.31;5058398;28;20029;-73
2024/02/02 10:16:10;;;;;;;;;;;;;;;4.12;100.00;100673.31;5059965;28;20397;-70
2024/02/02 10:19:21;;;;;;;16.33;2.85;;;;;;;4.21;100.00;100687.50;5076890;28;19920;-71
2024/02/02 10:21:55;;;;;;;20.95;2.78;;;;;;;4.23;100.00;100654.34;5042607;28;20076;-70
2024/02/02 10:24:24;;;;;;;16.97;2.50;;;;;;;4.23;100.00;100653.53;5057781;28;20056;-70
2024/02/02 10:27:22;;;;;;;21.60;2.80;;;;;;;4.02;100.00;100611.34;5058757;28;20036;-71
2024/02/02 10:30:05;;;;;;;21.48;3.65;;;;;;;4.22;100.00;100630.56;5060021;28;20037;-71
2024/02/02 10:32:58;;;;;;;20.70;3.10;;;;;;;4.18;100.00;100622.06;5059377;28;20021;-71
2024/02/02 10:35:48;;;;;;;18.40;3.15;;;;;;;4.22;100.00;100611.91;5058443;28;20029;-70
2024/02/02 10:38:21;;;;;;;18.45;2.78;;;;;;;4.26;100.00;100601.78;5078341;28;20029;-71
2024/02/02 10:41:08;;;;;;;26.67;3.17;;;;;;;4.24;100.00;100593.97;5079440;28;20059;-71
2024/02/02 10:43:36;;;;;;;27.98;3.10;;;;;;;4.27;100.00;100584.78;5079178;28;20039;-72
2024/02/02 10:46:20;;;;;;;21.85;2.83;;;;;;;4.25;100.00;100553.00;5060813;28;20080;-70
2024/02/02 10:49:11;;;;;;;23.30;3.42;;;;;;;4.28;100.00;100573.16;5063261;28;20029;-71
2024/02/02 10:51:47;;;;;;;21.77;3.08;;;;;;;4.30;100.00;100568.47;5027890;28;20051;-70
2024/02/02 10:54:21;;;;;;;24.75;3.45;;;;;;;4.32;100.00;100564.66;5054419;28;20431;-71
2024/02/02 10:57:14;;;;;;;21.35;2.97;;;;;;;4.35;100.00;100551.00;5055916;28;20490;-70
2024/02/02 11:00:09;;;;;;;16.95;2.75;;;;;;;4.37;100.00;100540.19;5058750;28;20025;-71
2024/02/02 11:03:08;;;;;;;19.67;3.08;;;;;;;4.37;100.00;100535.72;5059666;28;20041;-70
2024/02/02 11:05:45;;;;;;;18.40;3.20;;;;;;;4.39;100.00;100532.88;5056991;28;20033;-71
2024/02/02 11:08:16;;;;;;;19.58;3.35;;;;;;;4.40;100.00;100539.84;5054455;28;20024;-70
2024/02/02 11:11:01;;;;;;;18.48;3.20;;;;;;;4.42;100.00;100524.53;5063556;28;20028;-69
2024/02/02 11:14:10;;;;;;;23.35;3.58;;;;;;;4.45;100.00;100521.56;5061331;28;20029;-68
2024/02/02 11:16:41;;;;;;;24.38;3.42;;;;;;;4.45;100.00;100521.56;5064906;28;20044;-69
2024/02/02 11:19:32;;;;;;;24.30;3.70;;;;;;;4.46;100.00;100524.03;5083466;28;20029;-70
2024/02/02 11:22:29;;;;;;;19.85;3.53;;;;;;;4.47;100.00;100517.72;5064531;28;20024;-69
2024/02/02 11:25:04;;;;;;;22.92;3.28;;;;;;;4.50;100.00;100513.06;5058935;28;20039;-69
2024/02/02 11:27:34;;;;;;;;;;;;;;;4.51;100.00;100494.25;5060249;28;20043;-70
2024/02/02 11:30:07;;;;;;;23.77;3.50;;;;;;;4.53;100.00;100504.72;5095062;28;19908;-69